sensor_id;sensor_type;location;lat;lon;timestamp;temperature;humidity
8965;DHT22;4517;49.020;12.066;2022-08-21T00:02:20;16.20;99.90
8965;DHT22;4517;49.020;12.066;2022-08-21T00:04:48;16.20;99.90
8965;DHT22;4517;49.020;12.066;2022-08-21T00:07:14;16.20;99.90
8965;DHT22;4517;49.020;12.066;2022-08-21T00:09:40;16.20;99.90
8965;DHT22;4517;49.020;12.066;2022-08-21T00:12:06;16.10;99.90
8965;DHT22;4517;49.020;12.066;2022-08-21T00:14:33;16.10;99.90
8965;DHT22;4517;49.020;12.066;2022-08-21T00:16:59;16.20;99.90
8965;DHT22;4517;49.020;12.066;2022-08-21T00:19:25;16.20;99.90
8965;DHT22;4517;49.020;12.066;2022-08-21T00:21:52;16.30;99.90
8965;DHT22;4517;49.020;12.066;2022-08-21T00:24:19;16.40;99.90
8965;DHT22;4517;49.020;12.066;2022-08-21T00:26:45;16.30;99.90
8965;DHT22;4517;49.020;12.066;2022-08-21T00:29:11;16.30;99.90
8965;DHT22;4517;49.020;12.066;2022-08-21T00:31:37;16.30;99.90
8965;DHT22;4517;49.020;12.066;2022-08-21T00:34:03;16.30;99.90
8965;DHT22;4517;49.020;12.066;2022-08-21T00:36:29;16.20;99.90
8965;DHT22;4517;49.020;12.066;2022-08-21T00:38:55;16.10;99.90
8965;DHT22;4517;49.020;12.066;2022-08-21T00:41:21;16.10;99.90
8965;DHT22;4517;49.020;12.066;2022-08-21T00:43:48;16.10;99.90
8965;DHT22;4517;49.020;12.066;2022-08-21T00:46:14;16.10;99.90
8965;DHT22;4517;49.020;12.066;2022-08-21T00:48:39;16.10;99.90
8965;DHT22;4517;49.020;12.066;2022-08-21T00:51:19;16.10;99.90
8965;DHT22;4517;49.020;12.066;2022-08-21T00:53:50;16.10;99.90
8965;DHT22;4517;49.020;12.066;2022-08-21T00:56:17;16.10;99.90
8965;DHT22;4517;49.020;12.066;2022-08-21T00:58:45;16.10;99.90
8965;DHT22;4517;49.020;12.066;2022-08-21T01:01:11;16.10;99.90
8965;DHT22;4517;49.020;12.066;2022-08-21T01:03:38;16.20;99.90
8965;DHT22;4517;49.020;12.066;2022-08-21T01:06:04;16.20;99.90
8965;DHT22;4517;49.020;12.066;2022-08-21T01:08:31;16.30;99.90
8965;DHT22;4517;49.020;12.066;2022-08-21T01:10:58;16.30;99.90
8965;DHT22;4517;49.020;12.066;2022-08-21T01:13:25;16.30;99.90
8965;DHT22;4517;49.020;12.066;2022-08-21T01:15:54;16.30;99.90
8965;DHT22;4517;49.020;12.066;2022-08-21T01:18:21;16.20;99.90
8965;DHT22;4517;49.020;12.066;2022-08-21T01:21:10;16.30;99.90
8965;DHT22;4517;49.020;12.066;2022-08-21T01:23:39;16.30;99.90
8965;DHT22;4517;49.020;12.066;2022-08-21T01:26:06;16.30;99.90
8965;DHT22;4517;49.020;12.066;2022-08-21T01:28:36;16.30;99.90
8965;DHT22;4517;49.020;12.066;2022-08-21T01:31:05;16.30;99.90
8965;DHT22;4517;49.020;12.066;2022-08-21T01:33:32;16.30;99.90
8965;DHT22;4517;49.020;12.066;2022-08-21T01:35:58;16.30;99.90
8965;DHT22;4517;49.020;12.066;2022-08-21T01:38:24;16.30;99.90
8965;DHT22;4517;49.020;12.066;2022-08-21T01:40:50;16.30;99.90
8965;DHT22;4517;49.020;12.066;2022-08-21T01:43:16;16.30;99.90
8965;DHT22;4517;49.020;12.066;2022-08-21T01:45:41;16.30;99.90
8965;DHT22;4517;49.020;12.066;2022-08-21T01:48:07;16.20;99.90
8965;DHT22;4517;49.020;12.066;2022-08-21T01:50:34;16.20;99.90
8965;DHT22;4517;49.020;12.066;2022-08-21T01:52:59;16.20;99.90
8965;DHT22;4517;49.020;12.066;2022-08-21T01:55:25;16.20;99.90
8965;DHT22;4517;49.020;12.066;2022-08-21T01:57:51;16.10;99.90
8965;DHT22;4517;49.020;12.066;2022-08-21T02:00:20;16.10;99.90
8965;DHT22;4517;49.020;12.066;2022-08-21T02:02:48;16.10;99.90
8965;DHT22;4517;49.020;12.066;2022-08-21T02:05:14;16.10;99.90
8965;DHT22;4517;49.020;12.066;2022-08-21T02:07:43;16.10;99.90
8965;DHT22;4517;49.020;12.066;2022-08-21T02:10:11;16.10;99.90
8965;DHT22;4517;49.020;12.066;2022-08-21T02:12:37;16.00;99.90
8965;DHT22;4517;49.020;12.066;2022-08-21T02:15:04;16.00;99.90
8965;DHT22;4517;49.020;12.066;2022-08-21T02:17:38;16.00;99.90
8965;DHT22;4517;49.020;12.066;2022-08-21T02:20:04;16.00;99.90
8965;DHT22;4517;49.020;12.066;2022-08-21T02:22:30;16.00;99.90
8965;DHT22;4517;49.020;12.066;2022-08-21T02:24:56;15.90;99.90
8965;DHT22;4517;49.020;12.066;2022-08-21T02:27:22;16.00;99.90
8965;DHT22;4517;49.020;12.066;2022-08-21T02:29:48;16.00;99.90
8965;DHT22;4517;49.020;12.066;2022-08-21T02:32:14;16.00;99.90
8965;DHT22;4517;49.020;12.066;2022-08-21T02:34:40;16.10;99.90
8965;DHT22;4517;49.020;12.066;2022-08-21T02:37:05;16.00;99.90
8965;DHT22;4517;49.020;12.066;2022-08-21T02:39:31;16.00;99.90
8965;DHT22;4517;49.020;12.066;2022-08-21T02:41:56;15.90;99.90
8965;DHT22;4517;49.020;12.066;2022-08-21T02:44:22;15.90;99.90
8965;DHT22;4517;49.020;12.066;2022-08-21T02:46:47;15.90;99.90
8965;DHT22;4517;49.020;12.066;2022-08-21T02:49:13;15.80;99.90
8965;DHT22;4517;49.020;12.066;2022-08-21T02:51:38;15.80;99.90
8965;DHT22;4517;49.020;12.066;2022-08-21T02:54:04;15.80;99.90
8965;DHT22;4517;49.020;12.066;2022-08-21T02:56:30;15.80;99.90
8965;DHT22;4517;49.020;12.066;2022-08-21T02:58:55;15.90;99.90
8965;DHT22;4517;49.020;12.066;2022-08-21T03:01:21;15.90;99.90
8965;DHT22;4517;49.020;12.066;2022-08-21T03:03:47;15.90;99.90
8965;DHT22;4517;49.020;12.066;2022-08-21T03:06:18;15.90;99.90
8965;DHT22;4517;49.020;12.066;2022-08-21T03:08:44;15.90;99.90
8965;DHT22;4517;49.020;12.066;2022-08-21T03:11:11;15.90;99.90
8965;DHT22;4517;49.020;12.066;2022-08-21T03:13:36;15.90;99.90
8965;DHT22;4517;49.020;12.066;2022-08-21T03:16:02;15.90;99.90
8965;DHT22;4517;49.020;12.066;2022-08-21T03:18:27;15.90;99.90
8965;DHT22;4517;49.020;12.066;2022-08-21T03:20:53;15.90;99.90
8965;DHT22;4517;49.020;12.066;2022-08-21T03:23:19;15.90;99.90
8965;DHT22;4517;49.020;12.066;2022-08-21T03:25:46;15.80;99.90
8965;DHT22;4517;49.020;12.066;2022-08-21T03:28:15;15.90;99.90
8965;DHT22;4517;49.020;12.066;2022-08-21T03:30:46;15.90;99.90
8965;DHT22;4517;49.020;12.066;2022-08-21T03:33:13;16.00;99.90
8965;DHT22;4517;49.020;12.066;2022-08-21T03:35:40;15.90;99.90
8965;DHT22;4517;49.020;12.066;2022-08-21T03:38:06;15.90;99.90
8965;DHT22;4517;49.020;12.066;2022-08-21T03:40:32;15.90;99.90
8965;DHT22;4517;49.020;12.066;2022-08-21T03:42:58;15.90;99.90
8965;DHT22;4517;49.020;12.066;2022-08-21T03:45:24;15.80;99.90
8965;DHT22;4517;49.020;12.066;2022-08-21T03:50:17;15.80;99.90
8965;DHT22;4517;49.020;12.066;2022-08-21T03:52:43;15.80;99.90
8965;DHT22;4517;49.020;12.066;2022-08-21T03:55:08;15.80;99.90
8965;DHT22;4517;49.020;12.066;2022-08-21T03:57:34;15.80;99.90
8965;DHT22;4517;49.020;12.066;2022-08-21T03:59:59;15.80;99.90
8965;DHT22;4517;49.020;12.066;2022-08-21T04:02:25;15.80;99.90
8965;DHT22;4517;49.020;12.066;2022-08-21T04:04:50;15.80;99.90
8965;DHT22;4517;49.020;12.066;2022-08-21T04:07:17;15.80;99.90
8965;DHT22;4517;49.020;12.066;2022-08-21T04:09:43;15.90;99.90
8965;DHT22;4517;49.020;12.066;2022-08-21T04:12:08;16.00;99.90
8965;DHT22;4517;49.020;12.066;2022-08-21T04:14:34;15.80;99.90
8965;DHT22;4517;49.020;12.066;2022-08-21T04:16:59;15.80;99.90
8965;DHT22;4517;49.020;12.066;2022-08-21T04:19:25;15.60;99.90
8965;DHT22;4517;49.020;12.066;2022-08-21T04:21:51;15.60;99.90
8965;DHT22;4517;49.020;12.066;2022-08-21T04:24:17;15.60;99.90
8965;DHT22;4517;49.020;12.066;2022-08-21T04:26:42;15.70;99.90
8965;DHT22;4517;49.020;12.066;2022-08-21T04:29:08;15.60;99.90
8965;DHT22;4517;49.020;12.066;2022-08-21T04:31:34;15.60;99.90
8965;DHT22;4517;49.020;12.066;2022-08-21T04:34:03;15.60;99.90
8965;DHT22;4517;49.020;12.066;2022-08-21T04:36:28;15.60;99.90
8965;DHT22;4517;49.020;12.066;2022-08-21T04:38:54;15.60;99.90
8965;DHT22;4517;49.020;12.066;2022-08-21T04:41:20;15.70;99.90
8965;DHT22;4517;49.020;12.066;2022-08-21T04:43:45;15.70;99.90
8965;DHT22;4517;49.020;12.066;2022-08-21T04:46:11;15.70;99.90
8965;DHT22;4517;49.020;12.066;2022-08-21T04:48:36;15.70;99.90
8965;DHT22;4517;49.020;12.066;2022-08-21T04:51:10;15.70;99.90
8965;DHT22;4517;49.020;12.066;2022-08-21T04:53:59;15.70;99.90
8965;DHT22;4517;49.020;12.066;2022-08-21T04:56:30;15.70;99.90
8965;DHT22;4517;49.020;12.066;2022-08-21T04:58:59;15.70;99.90
8965;DHT22;4517;49.020;12.066;2022-08-21T05:01:27;15.80;99.90
8965;DHT22;4517;49.020;12.066;2022-08-21T05:03:56;15.80;99.90
8965;DHT22;4517;49.020;12.066;2022-08-21T05:06:23;15.80;99.90
8965;DHT22;4517;49.020;12.066;2022-08-21T05:08:51;15.70;99.90
8965;DHT22;4517;49.020;12.066;2022-08-21T05:11:18;15.70;99.90
8965;DHT22;4517;49.020;12.066;2022-08-21T05:13:45;15.70;99.90
8965;DHT22;4517;49.020;12.066;2022-08-21T05:16:11;15.60;99.90
8965;DHT22;4517;49.020;12.066;2022-08-21T05:18:36;15.60;99.90
8965;DHT22;4517;49.020;12.066;2022-08-21T05:21:02;15.60;99.90
8965;DHT22;4517;49.020;12.066;2022-08-21T05:23:28;15.70;99.90
8965;DHT22;4517;49.020;12.066;2022-08-21T05:25:54;15.80;99.90
8965;DHT22;4517;49.020;12.066;2022-08-21T05:28:21;15.80;99.90
8965;DHT22;4517;49.020;12.066;2022-08-21T05:30:47;15.80;99.90
8965;DHT22;4517;49.020;12.066;2022-08-21T05:33:12;15.80;99.90
8965;DHT22;4517;49.020;12.066;2022-08-21T05:35:38;15.70;99.90
8965;DHT22;4517;49.020;12.066;2022-08-21T05:38:05;15.80;99.90
8965;DHT22;4517;49.020;12.066;2022-08-21T05:40:31;15.80;99.90
8965;DHT22;4517;49.020;12.066;2022-08-21T05:42:58;15.80;99.90
8965;DHT22;4517;49.020;12.066;2022-08-21T05:45:27;15.80;99.90
8965;DHT22;4517;49.020;12.066;2022-08-21T05:47:52;15.90;99.90
8965;DHT22;4517;49.020;12.066;2022-08-21T05:50:18;15.90;99.90
8965;DHT22;4517;49.020;12.066;2022-08-21T05:52:44;15.90;99.90
8965;DHT22;4517;49.020;12.066;2022-08-21T05:55:10;15.90;99.90
8965;DHT22;4517;49.020;12.066;2022-08-21T05:57:35;15.90;99.90
8965;DHT22;4517;49.020;12.066;2022-08-21T06:00:02;15.90;99.90
8965;DHT22;4517;49.020;12.066;2022-08-21T06:02:28;16.00;99.90
8965;DHT22;4517;49.020;12.066;2022-08-21T06:04:56;16.00;99.90
8965;DHT22;4517;49.020;12.066;2022-08-21T06:07:22;15.90;99.90
8965;DHT22;4517;49.020;12.066;2022-08-21T06:09:47;15.90;99.90
8965;DHT22;4517;49.020;12.066;2022-08-21T06:12:14;16.00;99.90
8965;DHT22;4517;49.020;12.066;2022-08-21T06:14:40;16.00;99.90
8965;DHT22;4517;49.020;12.066;2022-08-21T06:17:09;16.00;99.90
8965;DHT22;4517;49.020;12.066;2022-08-21T06:19:35;16.00;99.90
8965;DHT22;4517;49.020;12.066;2022-08-21T06:22:02;16.10;99.90
8965;DHT22;4517;49.020;12.066;2022-08-21T06:24:28;16.10;99.90
8965;DHT22;4517;49.020;12.066;2022-08-21T06:26:54;16.10;99.90
8965;DHT22;4517;49.020;12.066;2022-08-21T06:29:20;16.10;99.90
8965;DHT22;4517;49.020;12.066;2022-08-21T06:31:47;16.20;99.90
8965;DHT22;4517;49.020;12.066;2022-08-21T06:34:13;16.30;99.90
8965;DHT22;4517;49.020;12.066;2022-08-21T06:36:39;16.40;99.90
8965;DHT22;4517;49.020;12.066;2022-08-21T06:39:04;16.50;99.90
8965;DHT22;4517;49.020;12.066;2022-08-21T06:41:30;16.60;99.90
8965;DHT22;4517;49.020;12.066;2022-08-21T06:43:57;16.60;99.90
8965;DHT22;4517;49.020;12.066;2022-08-21T06:46:24;16.40;99.90
8965;DHT22;4517;49.020;12.066;2022-08-21T06:48:50;16.40;99.90
8965;DHT22;4517;49.020;12.066;2022-08-21T06:51:15;16.50;99.90
8965;DHT22;4517;49.020;12.066;2022-08-21T06:53:41;16.60;99.90
8965;DHT22;4517;49.020;12.066;2022-08-21T06:56:07;16.60;99.90
8965;DHT22;4517;49.020;12.066;2022-08-21T06:58:33;16.70;99.90
8965;DHT22;4517;49.020;12.066;2022-08-21T07:00:59;16.70;99.90
8965;DHT22;4517;49.020;12.066;2022-08-21T07:03:31;16.70;99.90
8965;DHT22;4517;49.020;12.066;2022-08-21T07:05:57;16.70;99.90
8965;DHT22;4517;49.020;12.066;2022-08-21T07:08:25;16.70;99.90
8965;DHT22;4517;49.020;12.066;2022-08-21T07:10:52;16.70;99.90
8965;DHT22;4517;49.020;12.066;2022-08-21T07:13:18;16.80;99.90
8965;DHT22;4517;49.020;12.066;2022-08-21T07:15:44;16.70;99.90
8965;DHT22;4517;49.020;12.066;2022-08-21T07:18:10;16.70;99.90
8965;DHT22;4517;49.020;12.066;2022-08-21T07:20:37;16.50;99.90
8965;DHT22;4517;49.020;12.066;2022-08-21T07:23:05;16.70;99.90
8965;DHT22;4517;49.020;12.066;2022-08-21T07:25:31;16.70;99.90
8965;DHT22;4517;49.020;12.066;2022-08-21T07:27:57;16.80;99.90
8965;DHT22;4517;49.020;12.066;2022-08-21T07:30:23;16.80;99.90
8965;DHT22;4517;49.020;12.066;2022-08-21T07:32:49;17.00;99.90
8965;DHT22;4517;49.020;12.066;2022-08-21T07:35:16;17.10;99.90
8965;DHT22;4517;49.020;12.066;2022-08-21T07:37:42;17.00;99.90
8965;DHT22;4517;49.020;12.066;2022-08-21T07:40:08;17.20;99.90
8965;DHT22;4517;49.020;12.066;2022-08-21T07:42:34;17.20;99.90
8965;DHT22;4517;49.020;12.066;2022-08-21T07:44:59;16.80;99.90
8965;DHT22;4517;49.020;12.066;2022-08-21T07:47:25;16.80;99.90
8965;DHT22;4517;49.020;12.066;2022-08-21T07:49:50;16.90;99.90
8965;DHT22;4517;49.020;12.066;2022-08-21T07:52:16;17.00;99.90
8965;DHT22;4517;49.020;12.066;2022-08-21T07:54:42;17.10;99.90
8965;DHT22;4517;49.020;12.066;2022-08-21T07:57:08;16.80;99.90
8965;DHT22;4517;49.020;12.066;2022-08-21T07:59:33;17.00;99.90
8965;DHT22;4517;49.020;12.066;2022-08-21T08:01:59;17.10;99.90
8965;DHT22;4517;49.020;12.066;2022-08-21T08:04:24;17.70;99.90
8965;DHT22;4517;49.020;12.066;2022-08-21T08:06:50;17.80;99.90
8965;DHT22;4517;49.020;12.066;2022-08-21T08:09:16;17.80;99.90
8965;DHT22;4517;49.020;12.066;2022-08-21T08:11:42;17.70;99.90
8965;DHT22;4517;49.020;12.066;2022-08-21T08:14:10;17.50;99.90
8965;DHT22;4517;49.020;12.066;2022-08-21T08:16:36;17.80;99.90
8965;DHT22;4517;49.020;12.066;2022-08-21T08:19:02;17.90;99.90
8965;DHT22;4517;49.020;12.066;2022-08-21T08:21:28;17.80;99.90
8965;DHT22;4517;49.020;12.066;2022-08-21T08:23:54;17.80;99.90
8965;DHT22;4517;49.020;12.066;2022-08-21T08:26:20;17.80;99.90
8965;DHT22;4517;49.020;12.066;2022-08-21T08:28:46;17.90;99.90
8965;DHT22;4517;49.020;12.066;2022-08-21T08:31:13;17.90;99.90
8965;DHT22;4517;49.020;12.066;2022-08-21T08:33:39;18.40;99.90
8965;DHT22;4517;49.020;12.066;2022-08-21T08:36:05;18.40;99.90
8965;DHT22;4517;49.020;12.066;2022-08-21T08:38:36;18.50;99.90
8965;DHT22;4517;49.020;12.066;2022-08-21T08:41:17;18.30;99.90
8965;DHT22;4517;49.020;12.066;2022-08-21T08:43:50;18.00;99.90
8965;DHT22;4517;49.020;12.066;2022-08-21T08:46:20;18.10;99.90
8965;DHT22;4517;49.020;12.066;2022-08-21T08:49:13;18.00;99.90
8965;DHT22;4517;49.020;12.066;2022-08-21T08:54:18;18.20;99.90
8965;DHT22;4517;49.020;12.066;2022-08-21T08:56:46;18.20;99.90
8965;DHT22;4517;49.020;12.066;2022-08-21T08:59:19;18.50;99.90
8965;DHT22;4517;49.020;12.066;2022-08-21T09:01:46;18.80;99.90
8965;DHT22;4517;49.020;12.066;2022-08-21T09:04:13;18.80;99.90
8965;DHT22;4517;49.020;12.066;2022-08-21T09:10:05;19.40;99.90
8965;DHT22;4517;49.020;12.066;2022-08-21T09:12:56;19.40;99.90
8965;DHT22;4517;49.020;12.066;2022-08-21T09:18:33;19.50;99.90
8965;DHT22;4517;49.020;12.066;2022-08-21T09:21:24;19.50;99.90
8965;DHT22;4517;49.020;12.066;2022-08-21T09:24:39;19.50;99.90
8965;DHT22;4517;49.020;12.066;2022-08-21T09:26:57;19.30;99.90
8965;DHT22;4517;49.020;12.066;2022-08-21T09:29:28;19.60;99.90
8965;DHT22;4517;49.020;12.066;2022-08-21T09:31:56;19.80;99.90
8965;DHT22;4517;49.020;12.066;2022-08-21T09:34:30;20.20;99.90
8965;DHT22;4517;49.020;12.066;2022-08-21T09:36:57;20.20;99.90
8965;DHT22;4517;49.020;12.066;2022-08-21T09:39:37;20.40;99.90
8965;DHT22;4517;49.020;12.066;2022-08-21T09:42:06;21.10;99.90
8965;DHT22;4517;49.020;12.066;2022-08-21T09:44:39;21.50;99.90
8965;DHT22;4517;49.020;12.066;2022-08-21T09:47:10;21.30;99.90
8965;DHT22;4517;49.020;12.066;2022-08-21T09:49:39;21.20;99.90
8965;DHT22;4517;49.020;12.066;2022-08-21T09:52:18;21.20;99.90
8965;DHT22;4517;49.020;12.066;2022-08-21T09:54:46;21.10;99.90
8965;DHT22;4517;49.020;12.066;2022-08-21T09:57:23;21.00;99.90
8965;DHT22;4517;49.020;12.066;2022-08-21T10:00:29;21.30;99.90
8965;DHT22;4517;49.020;12.066;2022-08-21T10:03:11;21.40;99.90
8965;DHT22;4517;49.020;12.066;2022-08-21T10:05:38;21.10;99.90
8965;DHT22;4517;49.020;12.066;2022-08-21T10:08:04;21.50;99.90
8965;DHT22;4517;49.020;12.066;2022-08-21T10:10:32;22.10;99.90
8965;DHT22;4517;49.020;12.066;2022-08-21T10:13:24;22.20;99.90
8965;DHT22;4517;49.020;12.066;2022-08-21T10:19:10;21.50;99.90
8965;DHT22;4517;49.020;12.066;2022-08-21T10:24:38;20.80;99.90
8965;DHT22;4517;49.020;12.066;2022-08-21T10:27:14;21.30;99.90
8965;DHT22;4517;49.020;12.066;2022-08-21T10:35:14;21.30;99.90
8965;DHT22;4517;49.020;12.066;2022-08-21T10:40:40;21.40;99.90
8965;DHT22;4517;49.020;12.066;2022-08-21T10:49:01;22.20;99.90
8965;DHT22;4517;49.020;12.066;2022-08-21T10:54:38;22.40;99.90
8965;DHT22;4517;49.020;12.066;2022-08-21T10:57:16;22.30;99.90
8965;DHT22;4517;49.020;12.066;2022-08-21T10:59:54;21.00;99.90
8965;DHT22;4517;49.020;12.066;2022-08-21T11:02:41;21.40;99.90
8965;DHT22;4517;49.020;12.066;2022-08-21T11:08:15;21.90;99.90
8965;DHT22;4517;49.020;12.066;2022-08-21T11:10:50;22.60;99.90
8965;DHT22;4517;49.020;12.066;2022-08-21T11:13:19;22.80;99.90
8965;DHT22;4517;49.020;12.066;2022-08-21T11:16:07;22.90;99.90
8965;DHT22;4517;49.020;12.066;2022-08-21T11:18:41;22.60;99.90
8965;DHT22;4517;49.020;12.066;2022-08-21T11:21:19;22.10;99.90
8965;DHT22;4517;49.020;12.066;2022-08-21T11:23:55;22.10;99.90
8965;DHT22;4517;49.020;12.066;2022-08-21T11:26:32;22.20;99.90
8965;DHT22;4517;49.020;12.066;2022-08-21T11:29:30;22.20;99.90
8965;DHT22;4517;49.020;12.066;2022-08-21T11:32:24;21.50;99.90
8965;DHT22;4517;49.020;12.066;2022-08-21T11:40:26;21.60;99.90
8965;DHT22;4517;49.020;12.066;2022-08-21T11:43:18;21.40;99.90
8965;DHT22;4517;49.020;12.066;2022-08-21T11:45:55;21.30;99.90
8965;DHT22;4517;49.020;12.066;2022-08-21T11:51:38;21.50;99.90
8965;DHT22;4517;49.020;12.066;2022-08-21T11:54:45;21.20;99.90
8965;DHT22;4517;49.020;12.066;2022-08-21T11:57:34;21.40;99.90
8965;DHT22;4517;49.020;12.066;2022-08-21T12:02:39;21.40;99.90
8965;DHT22;4517;49.020;12.066;2022-08-21T12:05:09;21.40;99.90
8965;DHT22;4517;49.020;12.066;2022-08-21T12:07:37;21.70;99.90
8965;DHT22;4517;49.020;12.066;2022-08-21T12:10:08;22.00;99.90
8965;DHT22;4517;49.020;12.066;2022-08-21T12:12:36;22.20;99.90
8965;DHT22;4517;49.020;12.066;2022-08-21T12:18:31;22.10;99.90
8965;DHT22;4517;49.020;12.066;2022-08-21T12:21:17;22.20;99.90
8965;DHT22;4517;49.020;12.066;2022-08-21T12:26:59;22.00;99.90
8965;DHT22;4517;49.020;12.066;2022-08-21T12:31:59;22.20;99.90
8965;DHT22;4517;49.020;12.066;2022-08-21T12:34:42;22.30;99.90
8965;DHT22;4517;49.020;12.066;2022-08-21T12:37:24;22.30;99.90
8965;DHT22;4517;49.020;12.066;2022-08-21T12:39:53;22.20;99.90
8965;DHT22;4517;49.020;12.066;2022-08-21T12:42:38;22.50;99.90
8965;DHT22;4517;49.020;12.066;2022-08-21T12:45:23;22.50;99.90
8965;DHT22;4517;49.020;12.066;2022-08-21T12:47:56;22.50;99.90
8965;DHT22;4517;49.020;12.066;2022-08-21T12:50:33;22.50;99.90
8965;DHT22;4517;49.020;12.066;2022-08-21T12:53:06;22.80;99.90
8965;DHT22;4517;49.020;12.066;2022-08-21T12:55:34;23.00;99.90
8965;DHT22;4517;49.020;12.066;2022-08-21T12:58:00;23.00;99.90
8965;DHT22;4517;49.020;12.066;2022-08-21T13:00:28;22.80;99.90
8965;DHT22;4517;49.020;12.066;2022-08-21T13:02:55;22.70;99.90
8965;DHT22;4517;49.020;12.066;2022-08-21T13:05:32;23.00;99.90
8965;DHT22;4517;49.020;12.066;2022-08-21T13:08:02;23.30;99.90
8965;DHT22;4517;49.020;12.066;2022-08-21T13:10:30;23.40;99.90
8965;DHT22;4517;49.020;12.066;2022-08-21T13:12:59;23.50;99.90
8965;DHT22;4517;49.020;12.066;2022-08-21T13:15:29;23.40;99.90
8965;DHT22;4517;49.020;12.066;2022-08-21T13:17:55;23.30;99.90
8965;DHT22;4517;49.020;12.066;2022-08-21T13:20:30;23.30;99.90
8965;DHT22;4517;49.020;12.066;2022-08-21T13:22:56;23.40;99.90
8965;DHT22;4517;49.020;12.066;2022-08-21T13:25:26;23.50;99.90
8965;DHT22;4517;49.020;12.066;2022-08-21T13:28:10;23.40;99.90
8965;DHT22;4517;49.020;12.066;2022-08-21T13:30:46;23.50;99.90
8965;DHT22;4517;49.020;12.066;2022-08-21T13:33:15;23.60;99.90
8965;DHT22;4517;49.020;12.066;2022-08-21T13:36:03;23.80;99.90
8965;DHT22;4517;49.020;12.066;2022-08-21T13:38:32;23.80;99.90
8965;DHT22;4517;49.020;12.066;2022-08-21T13:41:03;23.60;99.90
8965;DHT22;4517;49.020;12.066;2022-08-21T13:43:34;23.80;99.90
8965;DHT22;4517;49.020;12.066;2022-08-21T13:46:02;23.80;99.90
8965;DHT22;4517;49.020;12.066;2022-08-21T13:48:33;23.80;99.90
8965;DHT22;4517;49.020;12.066;2022-08-21T13:50:59;23.80;99.90
8965;DHT22;4517;49.020;12.066;2022-08-21T13:53:32;23.90;99.90
8965;DHT22;4517;49.020;12.066;2022-08-21T13:55:59;24.00;99.90
8965;DHT22;4517;49.020;12.066;2022-08-21T13:58:43;24.10;99.90
8965;DHT22;4517;49.020;12.066;2022-08-21T14:01:20;24.10;99.90
8965;DHT22;4517;49.020;12.066;2022-08-21T14:03:49;24.10;99.90
8965;DHT22;4517;49.020;12.066;2022-08-21T14:06:22;24.10;99.90
8965;DHT22;4517;49.020;12.066;2022-08-21T14:08:51;24.00;99.90
8965;DHT22;4517;49.020;12.066;2022-08-21T14:11:19;24.10;99.90
8965;DHT22;4517;49.020;12.066;2022-08-21T14:13:49;24.10;99.90
8965;DHT22;4517;49.020;12.066;2022-08-21T14:16:28;24.20;99.80
8965;DHT22;4517;49.020;12.066;2022-08-21T14:21:38;24.20;99.90
8965;DHT22;4517;49.020;12.066;2022-08-21T14:26:36;24.20;99.30
8965;DHT22;4517;49.020;12.066;2022-08-21T14:29:07;24.10;98.70
8965;DHT22;4517;49.020;12.066;2022-08-21T14:31:33;24.20;98.90
8965;DHT22;4517;49.020;12.066;2022-08-21T14:34:00;24.20;97.60
8965;DHT22;4517;49.020;12.066;2022-08-21T14:36:26;24.20;97.30
8965;DHT22;4517;49.020;12.066;2022-08-21T14:38:52;24.20;97.70
8965;DHT22;4517;49.020;12.066;2022-08-21T14:41:21;24.30;98.10
8965;DHT22;4517;49.020;12.066;2022-08-21T14:43:48;24.50;97.90
8965;DHT22;4517;49.020;12.066;2022-08-21T14:46:20;24.40;97.60
8965;DHT22;4517;49.020;12.066;2022-08-21T14:48:46;24.40;97.60
8965;DHT22;4517;49.020;12.066;2022-08-21T14:51:13;24.30;97.50
8965;DHT22;4517;49.020;12.066;2022-08-21T14:53:39;24.30;98.00
8965;DHT22;4517;49.020;12.066;2022-08-21T14:56:05;24.30;97.90
8965;DHT22;4517;49.020;12.066;2022-08-21T14:58:32;24.40;97.40
8965;DHT22;4517;49.020;12.066;2022-08-21T15:00:58;24.50;96.30
8965;DHT22;4517;49.020;12.066;2022-08-21T15:03:24;24.50;96.10
8965;DHT22;4517;49.020;12.066;2022-08-21T15:05:51;24.40;96.60
8965;DHT22;4517;49.020;12.066;2022-08-21T15:08:17;24.20;96.50
8965;DHT22;4517;49.020;12.066;2022-08-21T15:10:45;24.00;95.40
8965;DHT22;4517;49.020;12.066;2022-08-21T15:13:10;24.00;95.10
8965;DHT22;4517;49.020;12.066;2022-08-21T15:15:41;24.00;94.60
8965;DHT22;4517;49.020;12.066;2022-08-21T15:18:08;23.90;95.00
8965;DHT22;4517;49.020;12.066;2022-08-21T15:20:34;24.00;95.20
8965;DHT22;4517;49.020;12.066;2022-08-21T15:23:01;24.10;95.70
8965;DHT22;4517;49.020;12.066;2022-08-21T15:25:26;24.30;94.70
8965;DHT22;4517;49.020;12.066;2022-08-21T15:27:52;24.40;94.10
8965;DHT22;4517;49.020;12.066;2022-08-21T15:30:17;24.50;94.10
8965;DHT22;4517;49.020;12.066;2022-08-21T15:32:43;24.60;93.40
8965;DHT22;4517;49.020;12.066;2022-08-21T15:35:09;24.80;93.30
8965;DHT22;4517;49.020;12.066;2022-08-21T15:37:35;24.80;91.30
8965;DHT22;4517;49.020;12.066;2022-08-21T15:40:02;24.70;90.10
8965;DHT22;4517;49.020;12.066;2022-08-21T15:42:28;24.60;90.40
8965;DHT22;4517;49.020;12.066;2022-08-21T15:44:55;24.70;91.00
8965;DHT22;4517;49.020;12.066;2022-08-21T15:47:24;24.70;90.30
8965;DHT22;4517;49.020;12.066;2022-08-21T15:49:50;24.70;88.40
8965;DHT22;4517;49.020;12.066;2022-08-21T15:52:18;24.60;87.00
8965;DHT22;4517;49.020;12.066;2022-08-21T15:54:44;24.50;84.40
8965;DHT22;4517;49.020;12.066;2022-08-21T15:57:14;24.60;82.40
8965;DHT22;4517;49.020;12.066;2022-08-21T15:59:47;24.60;76.20
8965;DHT22;4517;49.020;12.066;2022-08-21T16:02:23;24.50;76.70
8965;DHT22;4517;49.020;12.066;2022-08-21T16:04:49;24.50;76.10
8965;DHT22;4517;49.020;12.066;2022-08-21T16:07:15;24.60;74.40
8965;DHT22;4517;49.020;12.066;2022-08-21T16:09:41;24.50;73.80
8965;DHT22;4517;49.020;12.066;2022-08-21T16:12:08;24.60;74.20
8965;DHT22;4517;49.020;12.066;2022-08-21T16:14:35;24.60;74.10
8965;DHT22;4517;49.020;12.066;2022-08-21T16:17:04;24.50;72.60
8965;DHT22;4517;49.020;12.066;2022-08-21T16:19:31;24.50;72.60
8965;DHT22;4517;49.020;12.066;2022-08-21T16:21:56;24.50;71.20
8965;DHT22;4517;49.020;12.066;2022-08-21T16:24:22;24.40;71.90
8965;DHT22;4517;49.020;12.066;2022-08-21T16:26:48;24.40;69.40
8965;DHT22;4517;49.020;12.066;2022-08-21T16:29:14;24.40;69.10
8965;DHT22;4517;49.020;12.066;2022-08-21T16:31:40;24.40;70.00
8965;DHT22;4517;49.020;12.066;2022-08-21T16:34:06;24.30;72.00
8965;DHT22;4517;49.020;12.066;2022-08-21T16:36:32;24.30;72.70
8965;DHT22;4517;49.020;12.066;2022-08-21T16:38:59;24.20;73.00
8965;DHT22;4517;49.020;12.066;2022-08-21T16:41:30;24.30;73.90
8965;DHT22;4517;49.020;12.066;2022-08-21T16:43:57;24.30;73.90
8965;DHT22;4517;49.020;12.066;2022-08-21T16:46:23;24.30;74.50
8965;DHT22;4517;49.020;12.066;2022-08-21T16:48:49;24.50;75.50
8965;DHT22;4517;49.020;12.066;2022-08-21T16:51:15;24.90;75.30
8965;DHT22;4517;49.020;12.066;2022-08-21T16:53:41;25.40;72.60
8965;DHT22;4517;49.020;12.066;2022-08-21T16:56:08;26.00;70.80
8965;DHT22;4517;49.020;12.066;2022-08-21T16:58:37;26.50;68.90
8965;DHT22;4517;49.020;12.066;2022-08-21T17:01:06;26.80;68.20